VKG802 ENGM-LTAI
Flight info
| Callsign | VKG802 |
|---|---|
| Flight time | N/A |
| Altitude | 33000 |
| Route | OKSAT L996 LATKU L727 NEGIL DCT ETRUS DCT RUMAR DCT LENOV DCT KENIN DCT KARIL DCT ELVAB DCT ADORU UN739 EKI UL606 CRD UL854 KOZLU |
| Aircraft | A321/M-SDE3FGHIRWY/LB1 |
Departure
| Time | 2026-05-01 09:33 |
|---|---|
| Airport | Oslo-Gardermoen International Airport (ENGM) |
Arrival
| Time | N/A |
|---|---|
| Airport | Antalya International Airport (LTAI) |
| Time | Latitude | Longitude | Altitude | Speed | Heading |
|---|---|---|---|---|---|
| 2026-05-01 09:18 | 60.19403 | 11.10656 | 691 ft | 0 kts | 196° |
| 2026-05-01 09:25 | 60.19439 | 11.10676 | 686 ft | 4 kts | 195° |
| 2026-05-01 09:25 | 60.19484 | 11.10697 | 685 ft | 4 kts | 165° |
| 2026-05-01 09:26 | 60.19500 | 11.10673 | 684 ft | 3 kts | 107° |
| 2026-05-01 09:26 | 60.19488 | 11.10748 | 687 ft | 4 kts | 107° |
| 2026-05-01 09:26 | 60.19487 | 11.10759 | 689 ft | 0 kts | 107° |
| 2026-05-01 09:28 | 60.19478 | 11.10817 | 685 ft | 8 kts | 107° |
| 2026-05-01 09:29 | 60.19426 | 11.11174 | 690 ft | 14 kts | 106° |
| 2026-05-01 09:29 | 60.19458 | 11.11303 | 690 ft | 11 kts | 17° |
| 2026-05-01 09:30 | 60.19701 | 11.11443 | 687 ft | 25 kts | 15° |
| 2026-05-01 09:30 | 60.19862 | 11.11533 | 691 ft | 23 kts | 15° |
| 2026-05-01 09:30 | 60.20087 | 11.11725 | 691 ft | 12 kts | 87° |
| 2026-05-01 09:31 | 60.20067 | 11.11889 | 686 ft | 12 kts | 105° |
| 2026-05-01 09:31 | 60.20047 | 11.12033 | 686 ft | 10 kts | 105° |
| 2026-05-01 09:31 | 60.19986 | 11.12169 | 690 ft | 6 kts | 195° |
| 2026-05-01 09:32 | 60.19920 | 11.12133 | 690 ft | 23 kts | 195° |
| 2026-05-01 09:32 | 60.18739 | 11.11461 | 685 ft | 142 kts | 196° |
| 2026-05-01 09:32 | 60.17666 | 11.10810 | 817 ft | 170 kts | 196° |
| 2026-05-01 09:33 | 60.16571 | 11.10148 | 1554 ft | 161 kts | 198° |
| 2026-05-01 09:33 | 60.15507 | 11.09518 | 2312 ft | 158 kts | 200° |
| 2026-05-01 09:33 | 60.13218 | 11.09184 | 2982 ft | 191 kts | 161° |
| 2026-05-01 09:34 | 60.12088 | 11.10854 | 3205 ft | 215 kts | 134° |
| 2026-05-01 09:34 | 60.11025 | 11.13148 | 3392 ft | 235 kts | 136° |
| 2026-05-01 09:34 | 60.08579 | 11.18331 | 3917 ft | 273 kts | 136° |
| 2026-05-01 09:35 | 60.07239 | 11.21065 | 4601 ft | 277 kts | 144° |
| 2026-05-01 09:35 | 60.03765 | 11.24216 | 5978 ft | 277 kts | 165° |
| 2026-05-01 09:35 | 60.01944 | 11.25499 | 6704 ft | 279 kts | 165° |
| 2026-05-01 09:36 | 60.00102 | 11.26790 | 7350 ft | 282 kts | 166° |
| 2026-05-01 09:36 | 59.98248 | 11.28088 | 7986 ft | 284 kts | 166° |
| 2026-05-01 09:36 | 59.96372 | 11.29402 | 8615 ft | 286 kts | 166° |
| 2026-05-01 09:36 | 59.94484 | 11.30719 | 9205 ft | 289 kts | 166° |
| 2026-05-01 09:37 | 59.92581 | 11.32046 | 9827 ft | 292 kts | 166° |
| 2026-05-01 09:37 | 59.88654 | 11.34782 | 10563 ft | 313 kts | 166° |
| 2026-05-01 09:37 | 59.86532 | 11.36247 | 10685 ft | 332 kts | 166° |
| 2026-05-01 09:38 | 59.81950 | 11.39411 | 11176 ft | 359 kts | 166° |
| 2026-05-01 09:38 | 59.79581 | 11.41061 | 11683 ft | 364 kts | 166° |
| 2026-05-01 09:38 | 59.77177 | 11.42735 | 12247 ft | 367 kts | 166° |
| 2026-05-01 09:39 | 59.72310 | 11.46119 | 13344 ft | 374 kts | 166° |
| 2026-05-01 09:39 | 59.69843 | 11.47826 | 13890 ft | 377 kts | 166° |
| 2026-05-01 09:39 | 59.67360 | 11.49542 | 14408 ft | 380 kts | 166° |
| 2026-05-01 09:40 | 59.64857 | 11.51264 | 14911 ft | 382 kts | 167° |
| 2026-05-01 09:40 | 59.59799 | 11.54723 | 15899 ft | 387 kts | 167° |
| 2026-05-01 09:40 | 59.57244 | 11.56466 | 16379 ft | 390 kts | 167° |
| 2026-05-01 09:41 | 59.54667 | 11.58223 | 16853 ft | 392 kts | 167° |
| 2026-05-01 09:41 | 59.49478 | 11.61759 | 17787 ft | 397 kts | 167° |
| 2026-05-01 09:41 | 59.46857 | 11.63544 | 18234 ft | 400 kts | 167° |
| 2026-05-01 09:42 | 59.44221 | 11.65338 | 18664 ft | 402 kts | 167° |
| 2026-05-01 09:42 | 59.41569 | 11.67137 | 19051 ft | 405 kts | 166° |
| 2026-05-01 09:42 | 59.37126 | 11.70154 | 19681 ft | 408 kts | 166° |
| 2026-05-01 09:43 | 59.31722 | 11.73792 | 20426 ft | 413 kts | 166° |
| 2026-05-01 09:43 | 59.28994 | 11.75613 | 20794 ft | 415 kts | 166° |
| 2026-05-01 09:43 | 59.26252 | 11.77446 | 21155 ft | 418 kts | 166° |
| 2026-05-01 09:44 | 59.20722 | 11.81155 | 21898 ft | 423 kts | 166° |
| 2026-05-01 09:44 | 59.17934 | 11.83021 | 22250 ft | 425 kts | 166° |
| 2026-05-01 09:44 | 59.15160 | 11.85101 | 22590 ft | 429 kts | 161° |
| 2026-05-01 09:45 | 59.12412 | 11.87420 | 22950 ft | 432 kts | 160° |
| 2026-05-01 09:45 | 59.06904 | 11.92306 | 23649 ft | 437 kts | 159° |
| 2026-05-01 09:45 | 59.04136 | 11.94796 | 23970 ft | 440 kts | 159° |
| 2026-05-01 09:46 | 59.01349 | 11.97285 | 24251 ft | 441 kts | 159° |
| 2026-05-01 09:46 | 58.98553 | 11.99760 | 24543 ft | 443 kts | 159° |
| 2026-05-01 09:46 | 58.95737 | 12.02227 | 24844 ft | 444 kts | 159° |
| 2026-05-01 09:46 | 58.92912 | 12.04684 | 25130 ft | 446 kts | 159° |
| 2026-05-01 09:47 | 58.90074 | 12.07149 | 25410 ft | 448 kts | 159° |
| 2026-05-01 09:47 | 58.87228 | 12.09623 | 25687 ft | 449 kts | 159° |
| 2026-05-01 09:47 | 58.84374 | 12.12103 | 25990 ft | 451 kts | 159° |
| 2026-05-01 09:47 | 58.81512 | 12.14584 | 26271 ft | 452 kts | 159° |
| 2026-05-01 09:48 | 58.78628 | 12.17074 | 26550 ft | 454 kts | 159° |
| 2026-05-01 09:48 | 58.75740 | 12.19561 | 26817 ft | 456 kts | 159° |
| 2026-05-01 09:48 | 58.72839 | 12.22055 | 27076 ft | 458 kts | 159° |
| 2026-05-01 09:48 | 58.69935 | 12.24550 | 27350 ft | 459 kts | 159° |
| 2026-05-01 09:49 | 58.67002 | 12.27074 | 27611 ft | 461 kts | 159° |
| 2026-05-01 09:49 | 58.64072 | 12.29591 | 27863 ft | 462 kts | 159° |
| 2026-05-01 09:49 | 58.61171 | 12.32075 | 28110 ft | 464 kts | 159° |
| 2026-05-01 09:49 | 58.58216 | 12.34600 | 28362 ft | 465 kts | 159° |
| 2026-05-01 09:50 | 58.55254 | 12.37128 | 28606 ft | 467 kts | 159° |
| 2026-05-01 09:50 | 58.52279 | 12.39663 | 28839 ft | 469 kts | 159° |
| 2026-05-01 09:50 | 58.49297 | 12.42200 | 29082 ft | 470 kts | 159° |
| 2026-05-01 09:50 | 58.46308 | 12.44734 | 29387 ft | 470 kts | 159° |
| 2026-05-01 09:51 | 58.43326 | 12.47249 | 29723 ft | 469 kts | 159° |
| 2026-05-01 09:51 | 58.40342 | 12.49760 | 30074 ft | 468 kts | 159° |
| 2026-05-01 09:51 | 58.37365 | 12.52261 | 30430 ft | 467 kts | 159° |
| 2026-05-01 09:51 | 58.34395 | 12.54760 | 30731 ft | 466 kts | 159° |
| 2026-05-01 09:52 | 58.31437 | 12.57248 | 31016 ft | 465 kts | 159° |
| 2026-05-01 09:52 | 58.28481 | 12.59726 | 31315 ft | 464 kts | 159° |
| 2026-05-01 09:52 | 58.25543 | 12.62244 | 31597 ft | 464 kts | 155° |
| 2026-05-01 09:52 | 58.22753 | 12.65332 | 31869 ft | 465 kts | 150° |
| 2026-05-01 09:53 | 58.20014 | 12.68581 | 32146 ft | 464 kts | 150° |
| 2026-05-01 09:53 | 58.17272 | 12.71821 | 32419 ft | 464 kts | 150° |
| 2026-05-01 09:53 | 58.14535 | 12.75046 | 32692 ft | 463 kts | 150° |
| 2026-05-01 09:53 | 58.11795 | 12.78260 | 32962 ft | 463 kts | 150° |
| 2026-05-01 09:54 | 58.09061 | 12.81457 | 33228 ft | 462 kts | 150° |
| 2026-05-01 09:54 | 58.06324 | 12.84651 | 33329 ft | 461 kts | 150° |
| 2026-05-01 09:54 | 58.00881 | 12.90990 | 33335 ft | 459 kts | 150° |
| 2026-05-01 09:55 | 57.95454 | 12.97307 | 33340 ft | 459 kts | 150° |
| 2026-05-01 09:55 | 57.90020 | 13.03602 | 33342 ft | 459 kts | 149° |
| 2026-05-01 09:56 | 57.84578 | 13.09875 | 33340 ft | 459 kts | 149° |
| 2026-05-01 09:56 | 57.79139 | 13.16123 | 33346 ft | 459 kts | 149° |
| 2026-05-01 09:57 | 57.73691 | 13.22360 | 33335 ft | 459 kts | 149° |
| 2026-05-01 09:57 | 57.68241 | 13.28574 | 33330 ft | 459 kts | 149° |
| 2026-05-01 09:58 | 57.62787 | 13.34775 | 33339 ft | 459 kts | 149° |
| 2026-05-01 09:58 | 57.57331 | 13.40956 | 33338 ft | 459 kts | 149° |
| 2026-05-01 09:59 | 57.51863 | 13.47127 | 33341 ft | 459 kts | 149° |
| 2026-05-01 09:59 | 57.46399 | 13.53274 | 33347 ft | 459 kts | 149° |
| 2026-05-01 10:00 | 57.40940 | 13.59397 | 33339 ft | 458 kts | 149° |
| 2026-05-01 10:00 | 57.35515 | 13.65465 | 33334 ft | 458 kts | 149° |
| 2026-05-01 10:01 | 57.30050 | 13.71557 | 33335 ft | 458 kts | 149° |
| 2026-05-01 10:01 | 57.24581 | 13.77617 | 33333 ft | 458 kts | 149° |
| 2026-05-01 10:02 | 57.19112 | 13.83668 | 33331 ft | 458 kts | 149° |
| 2026-05-01 10:02 | 57.13643 | 13.89693 | 33338 ft | 459 kts | 149° |
| 2026-05-01 10:03 | 57.08161 | 13.95705 | 33338 ft | 458 kts | 149° |
| 2026-05-01 10:03 | 57.02683 | 14.01697 | 33342 ft | 458 kts | 148° |
| 2026-05-01 10:04 | 56.97206 | 14.07681 | 33347 ft | 458 kts | 148° |
| 2026-05-01 10:04 | 56.91725 | 14.13637 | 33352 ft | 458 kts | 149° |
| 2026-05-01 10:05 | 56.86235 | 14.19568 | 33350 ft | 458 kts | 149° |
| 2026-05-01 10:05 | 56.80742 | 14.25480 | 33349 ft | 458 kts | 148° |
| 2026-05-01 10:06 | 56.75252 | 14.31388 | 33347 ft | 458 kts | 148° |
| 2026-05-01 10:06 | 56.69765 | 14.37270 | 33347 ft | 458 kts | 148° |
| 2026-05-01 10:07 | 56.64276 | 14.43138 | 33344 ft | 458 kts | 148° |
| 2026-05-01 10:07 | 56.58776 | 14.48988 | 33349 ft | 458 kts | 148° |
| 2026-05-01 10:08 | 56.50514 | 14.57744 | 33346 ft | 459 kts | 148° |
| 2026-05-01 10:09 | 56.45000 | 14.63559 | 33345 ft | 459 kts | 148° |
| 2026-05-01 10:09 | 56.39480 | 14.69369 | 33342 ft | 459 kts | 148° |
| 2026-05-01 10:10 | 56.33949 | 14.75168 | 33336 ft | 460 kts | 148° |
| 2026-05-01 10:10 | 56.25643 | 14.83837 | 33332 ft | 460 kts | 148° |
| 2026-05-01 10:11 | 56.20134 | 14.89565 | 33334 ft | 461 kts | 148° |
| 2026-05-01 10:11 | 56.14582 | 14.95309 | 33326 ft | 461 kts | 148° |
| 2026-05-01 10:12 | 56.09926 | 15.00110 | 33329 ft | 461 kts | 148° |
| 2026-05-01 10:13 | 56.00689 | 15.09606 | 33341 ft | 461 kts | 148° |